createdAt,value
2019-05-25T00:00:29.271Z,12.65
2019-05-25T00:02:58.191Z,14.28
2019-05-25T00:05:26.674Z,12.95
2019-05-25T00:07:55.792Z,13.68
2019-05-25T00:10:27.412Z,17.85
2019-05-25T00:12:55.971Z,14.05
2019-05-25T00:15:24.386Z,15.88
2019-05-25T00:17:53.256Z,17.75
2019-05-25T00:20:24.604Z,12.85
2019-05-25T00:22:53.331Z,17.32
2019-05-25T00:25:22.100Z,11.70
2019-05-25T00:27:50.918Z,18.55
2019-05-25T00:30:19.631Z,11.75
2019-05-25T00:32:49.580Z,11.80
2019-05-25T00:35:19.734Z,16.23
2019-05-25T00:37:48.705Z,12.20
2019-05-25T00:40:17.682Z,15.80
2019-05-25T00:42:46.307Z,15.30
2019-05-25T00:45:15.433Z,16.32
2019-05-25T00:47:47.277Z,15.60
2019-05-25T00:50:15.679Z,15.30
2019-05-25T00:52:44.119Z,13.08
2019-05-25T00:55:13.875Z,19.20
2019-05-25T00:57:42.420Z,15.55
2019-05-25T01:00:13.365Z,14.68
2019-05-25T01:02:42.074Z,17.82
2019-05-25T01:05:11.187Z,15.63
2019-05-25T01:07:39.701Z,16.80
2019-05-25T01:10:13.753Z,13.25
2019-05-25T01:12:42.569Z,16.37
2019-05-25T01:15:11.538Z,14.13
2019-05-25T01:17:39.937Z,17.15
2019-05-25T01:20:10.465Z,14.85
2019-05-25T01:22:39.546Z,13.85
2019-05-25T01:25:09.227Z,19.37
2019-05-25T01:27:37.960Z,12.00
2019-05-25T01:30:09.147Z,17.67
2019-05-25T01:32:37.869Z,13.88
2019-05-25T01:35:06.530Z,17.00
2019-05-25T01:37:35.259Z,19.50
2019-05-25T01:40:05.920Z,16.50
2019-05-25T01:42:34.714Z,16.17
2019-05-25T01:45:04.429Z,19.37
2019-05-25T01:47:32.863Z,16.55
2019-05-25T01:50:02.849Z,16.32
2019-05-25T01:55:03.965Z,15.43
2019-05-25T01:57:32.651Z,13.80
2019-05-25T02:00:06.619Z,20.20
2019-05-25T02:02:35.600Z,14.68
2019-05-25T02:05:09.800Z,17.37
2019-05-25T02:07:38.543Z,14.60
2019-05-25T02:10:07.563Z,16.42
2019-05-25T02:12:36.244Z,18.23
2019-05-25T02:15:08.731Z,24.85
2019-05-25T02:17:37.435Z,17.65
2019-05-25T02:20:09.412Z,13.60
2019-05-25T02:22:38.319Z,16.85
2019-05-25T02:25:18.060Z,15.15
2019-05-25T02:27:41.977Z,17.70
2019-05-25T02:30:14.037Z,19.45
2019-05-25T02:32:42.398Z,20.00
2019-05-25T02:35:23.104Z,16.40
2019-05-25T02:37:51.820Z,19.48
2019-05-25T02:40:23.562Z,16.23
2019-05-25T02:42:52.579Z,21.45
2019-05-25T02:45:24.044Z,17.53
2019-05-25T02:47:52.824Z,21.42
2019-05-25T02:50:21.409Z,28.38
2019-05-25T02:52:50.631Z,15.93
2019-05-25T02:55:33.223Z,19.42
2019-05-25T02:57:50.559Z,20.80
2019-05-25T03:00:22.284Z,18.32
2019-05-25T03:02:58.646Z,25.82
2019-05-25T03:05:27.250Z,19.62
2019-05-25T03:07:57.121Z,19.02
2019-05-25T03:10:25.829Z,18.90
2019-05-25T03:12:56.675Z,21.97
2019-05-25T03:15:26.152Z,19.02
2019-05-25T03:17:55.143Z,21.93
2019-05-25T03:20:23.894Z,22.07
2019-05-25T03:22:54.035Z,21.17
2019-05-25T03:25:25.414Z,23.52
2019-05-25T03:27:55.485Z,18.50
2019-05-25T03:30:34.835Z,19.55
2019-05-25T03:33:06.535Z,16.67
2019-05-25T03:35:36.906Z,19.17
2019-05-25T03:38:06.645Z,16.52
2019-05-25T03:40:39.552Z,19.17
2019-05-25T03:43:09.546Z,18.90
2019-05-25T03:48:06.154Z,20.92
2019-05-25T03:50:38.827Z,14.10
2019-05-25T03:53:10.921Z,15.32
2019-05-25T03:55:41.671Z,12.13
2019-05-25T03:58:13.191Z,11.18
2019-05-25T04:00:49.315Z,10.25
2019-05-25T04:03:36.335Z,9.83
2019-05-25T04:06:10.914Z,7.12
2019-05-25T04:08:43.966Z,6.40
2019-05-25T04:11:15.705Z,8.03
2019-05-25T04:13:49.087Z,9.48
2019-05-25T04:16:24.084Z,5.12
2019-05-25T04:18:57.102Z,6.42
2019-05-25T04:21:30.353Z,5.70
2019-05-25T04:24:04.064Z,7.90
2019-05-25T04:26:35.646Z,5.97
2019-05-25T04:29:07.821Z,6.87
2019-05-25T04:31:41.019Z,7.58
2019-05-25T04:34:10.995Z,6.12
2019-05-25T04:39:11.373Z,6.15
2019-05-25T04:41:42.011Z,5.35
2019-05-25T04:44:11.838Z,6.12
2019-05-25T04:46:59.468Z,8.38
2019-05-25T04:49:34.315Z,4.60
2019-05-25T04:52:06.345Z,5.58
2019-05-25T04:54:44.718Z,4.80
2019-05-25T04:57:20.645Z,9.58
2019-05-25T04:59:59.471Z,6.15
2019-05-25T05:02:36.491Z,4.83
2019-05-25T05:05:10.102Z,5.05
2019-05-25T05:07:42.557Z,5.35
2019-05-25T05:10:19.460Z,6.78
2019-05-25T05:12:54.752Z,4.33
2019-05-25T05:15:24.138Z,3.77
2019-05-25T05:17:52.969Z,4.05
2019-05-25T05:20:23.089Z,4.08
2019-05-25T05:22:52.455Z,6.97
2019-05-25T05:25:33.154Z,4.30
2019-05-25T05:28:06.460Z,4.97
2019-05-25T05:30:40.461Z,5.70
2019-05-25T05:33:18.547Z,6.00
2019-05-25T05:35:56.817Z,7.95
2019-05-25T05:38:27.079Z,12.25
2019-05-25T05:43:52.228Z,4.60
2019-05-25T05:46:27.743Z,5.67
2019-05-25T05:48:59.980Z,4.33
2019-05-25T05:51:31.280Z,4.00
2019-05-25T05:53:59.928Z,4.92
2019-05-25T05:56:30.914Z,5.45
2019-05-25T05:59:04.671Z,4.45
2019-05-25T06:01:34.746Z,6.15
2019-05-25T06:04:05.249Z,5.45
2019-05-25T06:06:34.777Z,5.00
2019-05-25T06:09:06.820Z,5.45
2019-05-25T06:11:36.496Z,5.55
2019-05-25T06:14:07.621Z,4.08
2019-05-25T06:16:37.555Z,4.45
2019-05-25T06:19:06.397Z,7.03
2019-05-25T06:21:36.242Z,4.05
2019-05-25T06:24:09.134Z,4.95
2019-05-25T06:26:38.380Z,7.00
2019-05-25T06:29:09.830Z,5.12
2019-05-25T06:31:39.147Z,3.60
2019-05-25T06:34:08.027Z,7.62
2019-05-25T06:36:37.041Z,7.97
2019-05-25T06:39:08.339Z,4.27
2019-05-25T06:41:36.944Z,3.40
2019-05-25T06:44:06.127Z,5.65
2019-05-25T06:46:35.063Z,4.55
2019-05-25T06:49:04.358Z,3.10
2019-05-25T06:51:33.829Z,3.70
2019-05-25T06:54:02.824Z,6.08
2019-05-25T06:56:31.493Z,2.67
2019-05-25T06:59:00.097Z,2.77
2019-05-25T07:01:29.036Z,2.75
2019-05-25T07:03:57.939Z,5.67
2019-05-25T07:06:27.498Z,3.15
2019-05-25T07:08:56.743Z,4.33
2019-05-25T07:11:27.972Z,3.35
2019-05-25T07:13:59.479Z,2.33
2019-05-25T07:16:31.021Z,2.75
2019-05-25T07:18:59.925Z,6.72
2019-05-25T07:21:30.152Z,3.00
2019-05-25T07:24:00.856Z,4.33
2019-05-25T07:26:31.164Z,2.92
2019-05-25T07:29:00.313Z,5.65
2019-05-25T07:31:30.358Z,4.62
2019-05-25T07:33:59.828Z,30.17
2019-05-25T07:36:28.979Z,53.60
2019-05-25T07:38:58.493Z,4.70
2019-05-25T07:41:28.595Z,4.78
2019-05-25T07:43:57.754Z,2.20
2019-05-25T07:46:27.751Z,2.80
2019-05-25T07:48:56.587Z,2.52
2019-05-25T07:51:26.078Z,5.95
2019-05-25T07:56:23.623Z,4.62
2019-05-25T07:58:52.341Z,5.20
2019-05-25T08:01:21.330Z,2.85
2019-05-25T08:03:50.780Z,2.50
2019-05-25T08:08:49.704Z,4.80
2019-05-25T08:11:18.674Z,9.63
2019-05-25T08:13:47.214Z,8.05
2019-05-25T08:16:16.348Z,4.17
2019-05-25T08:18:45.321Z,1.67
2019-05-25T08:21:14.611Z,2.10
2019-05-25T08:23:45.597Z,5.10
2019-05-25T08:26:16.348Z,3.72
2019-05-25T08:28:45.719Z,2.12
2019-05-25T08:31:18.670Z,5.00
2019-05-25T08:33:47.623Z,4.92
2019-05-25T08:36:16.544Z,2.15
2019-05-25T08:38:46.129Z,4.80
2019-05-25T08:41:15.320Z,1.82
2019-05-25T08:43:45.061Z,3.98
2019-05-25T08:46:13.664Z,1.57
2019-05-25T08:48:42.158Z,2.23
2019-05-25T08:51:10.753Z,3.43
2019-05-25T08:53:41.920Z,2.87
2019-05-25T08:56:09.867Z,5.90
2019-05-25T08:58:47.975Z,2.00
2019-05-25T09:01:10.446Z,2.00
2019-05-25T09:03:39.557Z,5.15
2019-05-25T09:06:09.321Z,2.55
2019-05-25T09:08:40.881Z,1.75
2019-05-25T09:11:13.585Z,3.58
2019-05-25T09:13:44.088Z,3.58
2019-05-25T09:16:17.743Z,13.45
2019-05-25T09:18:49.317Z,2.83
2019-05-25T09:21:19.001Z,9.60
2019-05-25T09:23:50.367Z,2.12
2019-05-25T09:26:19.594Z,4.75
2019-05-25T09:31:19.709Z,4.35
2019-05-25T09:33:48.995Z,4.83
2019-05-25T09:36:18.920Z,5.75
2019-05-25T09:38:48.645Z,3.25
2019-05-25T09:41:18.796Z,7.28
2019-05-25T09:43:48.164Z,5.22
2019-05-25T09:48:47.847Z,4.53
2019-05-25T09:51:18.412Z,4.22
2019-05-25T09:53:47.164Z,5.42
2019-05-25T09:56:16.600Z,9.65
2019-05-25T09:58:47.084Z,2.62
2019-05-25T10:01:17.146Z,4.25
2019-05-25T10:03:47.970Z,8.68
2019-05-25T10:06:17.221Z,6.72
2019-05-25T10:11:15.179Z,5.15
2019-05-25T10:13:44.723Z,31.42
2019-05-25T10:16:14.522Z,48.38
2019-05-25T10:21:14.424Z,5.30
2019-05-25T10:23:42.600Z,20.57
2019-05-25T10:26:11.226Z,43.30
2019-05-25T10:28:44.163Z,36.30
2019-05-25T10:31:12.709Z,17.65
2019-05-25T10:33:42.795Z,8.53
2019-05-25T10:36:21.164Z,31.15
2019-05-25T10:38:53.321Z,14.00
2019-05-25T10:41:23.306Z,8.70
2019-05-25T10:43:53.898Z,8.05
2019-05-25T10:46:22.992Z,7.35
2019-05-25T10:48:51.455Z,4.60
2019-05-25T10:51:20.785Z,8.33
2019-05-25T10:53:53.657Z,6.15
2019-05-25T10:56:26.603Z,7.80
2019-05-25T10:58:56.714Z,4.80
2019-05-25T11:01:25.911Z,6.05
2019-05-25T11:03:56.095Z,5.97
2019-05-25T11:06:25.737Z,8.75
2019-05-25T11:08:54.878Z,4.53
2019-05-25T11:11:35.559Z,4.22
2019-05-25T11:14:16.871Z,5.33
2019-05-25T11:19:48.868Z,5.75
2019-05-25T11:22:21.718Z,4.25
2019-05-25T11:24:54.006Z,6.45
2019-05-25T11:27:23.968Z,6.78
2019-05-25T11:30:08.547Z,9.73
2019-05-25T11:32:33.498Z,7.60
2019-05-25T11:35:07.365Z,6.87
2019-05-25T11:37:39.526Z,4.15
2019-05-25T11:40:11.078Z,4.45
2019-05-25T11:42:44.247Z,37.80
2019-05-25T11:45:21.924Z,34.85
2019-05-25T11:47:52.654Z,11.93
2019-05-25T11:50:33.169Z,18.05
2019-05-25T11:53:07.434Z,6.28
2019-05-25T11:55:38.234Z,14.15
2019-05-25T11:58:10.663Z,77.78
2019-05-25T12:00:42.654Z,12.35
2019-05-25T12:03:12.157Z,82.70
2019-05-25T12:05:41.903Z,6.45
2019-05-25T12:10:41.988Z,4.10
2019-05-25T12:13:10.911Z,4.70
2019-05-25T12:15:43.070Z,11.93
2019-05-25T12:18:12.746Z,3.15
2019-05-25T12:20:47.255Z,5.30
2019-05-25T12:23:21.000Z,5.92
2019-05-25T12:25:51.801Z,3.35
2019-05-25T12:28:27.110Z,3.15
2019-05-25T12:31:05.190Z,3.02
2019-05-25T12:33:34.977Z,3.72
2019-05-25T12:36:09.719Z,5.95
2019-05-25T12:38:43.048Z,6.45
2019-05-25T12:41:17.254Z,17.87
2019-05-25T12:43:48.903Z,3.70
2019-05-25T12:46:27.739Z,6.70
2019-05-25T12:48:58.115Z,2.65
2019-05-25T12:51:28.128Z,4.42
2019-05-25T12:53:57.604Z,3.70
2019-05-25T12:56:26.679Z,3.47
2019-05-25T12:58:55.741Z,2.95
2019-05-25T13:01:25.689Z,2.45
2019-05-25T13:03:54.538Z,5.40
2019-05-25T13:06:24.341Z,6.35
2019-05-25T13:11:20.964Z,4.50
2019-05-25T13:13:49.669Z,4.75
2019-05-25T13:16:19.220Z,6.50
2019-05-25T13:18:47.902Z,4.92
2019-05-25T13:21:16.302Z,3.27
2019-05-25T13:23:44.954Z,3.87
2019-05-25T13:26:13.692Z,2.90
2019-05-25T13:28:42.140Z,3.17
2019-05-25T13:31:12.096Z,3.20
2019-05-25T13:33:41.734Z,2.83
2019-05-25T13:36:10.618Z,3.05
2019-05-25T13:38:39.785Z,7.28
2019-05-25T13:41:08.851Z,4.67
2019-05-25T13:43:38.399Z,3.77
2019-05-25T13:46:07.261Z,4.50
2019-05-25T13:48:36.808Z,4.30
2019-05-25T13:51:06.743Z,3.10
2019-05-25T13:53:42.210Z,3.33
2019-05-25T13:56:11.725Z,3.25
2019-05-25T13:58:40.868Z,3.55
2019-05-25T14:01:09.579Z,3.40
2019-05-25T14:03:38.718Z,3.10
2019-05-25T14:06:07.726Z,7.60
2019-05-25T14:08:37.026Z,10.33
2019-05-25T14:11:07.321Z,5.83
2019-05-25T14:13:35.982Z,6.87
2019-05-25T14:16:11.732Z,3.87
2019-05-25T14:18:42.060Z,5.50
2019-05-25T14:21:11.058Z,5.87
2019-05-25T14:23:39.581Z,7.10
2019-05-25T14:26:08.880Z,4.28
2019-05-25T14:28:38.031Z,3.75
2019-05-25T14:31:06.953Z,8.33
2019-05-25T14:33:35.591Z,4.00
2019-05-25T14:36:05.785Z,8.73
2019-05-25T14:38:34.763Z,4.83
2019-05-25T14:41:04.844Z,3.90
2019-05-25T14:43:38.595Z,7.25
2019-05-25T14:46:10.331Z,6.20
2019-05-25T14:48:40.974Z,3.95
2019-05-25T14:51:14.292Z,6.60
2019-05-25T14:53:43.863Z,6.70
2019-05-25T14:56:14.556Z,5.25
2019-05-25T14:58:45.009Z,6.05
2019-05-25T15:01:15.272Z,6.67
2019-05-25T15:03:46.820Z,12.25
2019-05-25T15:06:20.721Z,8.08
2019-05-25T15:08:46.715Z,14.10
2019-05-25T15:11:16.361Z,7.95
2019-05-25T15:13:45.012Z,6.12
2019-05-25T15:16:13.771Z,4.10
2019-05-25T15:18:42.393Z,4.12
2019-05-25T15:21:13.230Z,11.15
2019-05-25T15:23:41.851Z,8.55
2019-05-25T15:26:10.374Z,8.35
2019-05-25T15:28:39.160Z,10.50
2019-05-25T15:34:41.687Z,4.92
2019-05-25T15:37:10.288Z,5.92
2019-05-25T15:39:40.590Z,5.60
2019-05-25T15:42:09.847Z,4.55
2019-05-25T15:44:40.756Z,4.30
2019-05-25T15:47:12.005Z,5.35
2019-05-25T15:49:49.568Z,5.60
2019-05-25T15:52:18.515Z,6.53
2019-05-25T15:54:47.100Z,11.15
2019-05-25T15:57:18.492Z,8.35
2019-05-25T15:59:47.352Z,5.53
2019-05-25T16:02:16.483Z,4.78
2019-05-25T16:04:46.176Z,5.70
2019-05-25T16:07:16.620Z,11.65
2019-05-25T16:09:48.019Z,5.47
2019-05-25T16:12:16.534Z,8.85
2019-05-25T16:14:48.447Z,9.13
2019-05-25T16:17:17.152Z,9.83
2019-05-25T16:19:46.026Z,34.05
2019-05-25T16:22:14.608Z,25.17
2019-05-25T16:24:43.526Z,109.27
2019-05-25T16:27:11.964Z,41.83
2019-05-25T16:29:40.695Z,10.93
2019-05-25T16:32:09.314Z,19.42
2019-05-25T16:34:37.797Z,19.12
2019-05-25T16:38:06.553Z,7.60
2019-05-25T16:40:35.601Z,10.08
2019-05-25T16:43:04.133Z,10.50
2019-05-25T16:46:00.583Z,140.22
2019-05-25T16:48:30.105Z,160.32
2019-05-25T16:50:59.191Z,58.08
2019-05-25T16:53:27.492Z,21.03
2019-05-25T16:55:55.962Z,12.43
2019-05-25T16:58:24.944Z,23.75
2019-05-25T17:00:58.328Z,13.50
2019-05-25T17:03:29.283Z,13.28
2019-05-25T17:05:58.954Z,11.33
2019-05-25T17:08:34.419Z,10.30
2019-05-25T17:11:07.990Z,12.28
2019-05-25T17:13:38.826Z,9.55
2019-05-25T17:16:17.664Z,14.13
2019-05-25T17:18:48.147Z,13.48
2019-05-25T17:21:18.149Z,13.75
2019-05-25T17:26:18.590Z,11.08
2019-05-25T17:28:49.273Z,8.73
2019-05-25T17:31:19.879Z,8.85
2019-05-25T17:33:48.307Z,42.58
2019-05-25T17:36:21.575Z,11.83
2019-05-25T17:38:51.050Z,15.18
2019-05-25T17:41:22.126Z,13.05
2019-05-25T17:43:50.593Z,11.78
2019-05-25T17:46:19.449Z,9.53
2019-05-25T17:48:48.397Z,10.15
2019-05-25T17:51:17.865Z,10.55
2019-05-25T17:53:46.728Z,14.98
2019-05-25T17:56:18.434Z,18.02
2019-05-25T17:58:47.312Z,10.30
2019-05-25T18:01:19.498Z,11.85
2019-05-25T18:04:05.438Z,13.68
2019-05-25T18:09:22.789Z,14.15
2019-05-25T18:11:52.901Z,15.78
2019-05-25T18:14:23.231Z,13.93
2019-05-25T18:16:54.775Z,15.13
2019-05-25T18:19:28.745Z,16.17
2019-05-25T18:22:02.045Z,15.53
2019-05-25T18:24:34.440Z,18.57
2019-05-25T18:27:11.672Z,16.50
2019-05-25T18:29:41.489Z,16.62
2019-05-25T18:34:48.161Z,18.23
2019-05-25T18:37:17.041Z,20.05
2019-05-25T18:39:45.852Z,16.37
2019-05-25T18:42:14.637Z,15.28
2019-05-25T18:44:44.134Z,16.20
2019-05-25T18:47:15.211Z,16.75
2019-05-25T18:49:44.339Z,18.15
2019-05-25T18:52:14.873Z,23.23
2019-05-25T18:54:44.767Z,17.00
2019-05-25T18:57:24.410Z,18.12
2019-05-25T18:59:56.722Z,25.40
2019-05-25T19:02:27.031Z,20.97
2019-05-25T19:05:01.452Z,18.32
2019-05-25T19:07:31.341Z,22.35
2019-05-25T19:12:28.685Z,19.25
2019-05-25T19:14:59.820Z,19.82
2019-05-25T19:17:29.014Z,22.02
2019-05-25T19:19:59.991Z,18.77
2019-05-25T19:22:29.833Z,19.27
2019-05-25T19:25:00.048Z,20.92
2019-05-25T19:27:29.899Z,19.20
2019-05-25T19:29:59.094Z,20.65
2019-05-25T19:32:29.219Z,18.80
2019-05-25T19:35:00.507Z,19.42
2019-05-25T19:37:29.750Z,18.30
2019-05-25T19:40:08.853Z,19.40
2019-05-25T19:45:27.595Z,24.98
2019-05-25T19:48:01.801Z,20.17
2019-05-25T19:50:36.511Z,19.80
2019-05-25T19:55:50.349Z,19.48
2019-05-25T19:58:19.903Z,18.73
2019-05-25T20:00:49.026Z,18.25
2019-05-25T20:03:24.750Z,20.87
2019-05-25T20:05:53.364Z,24.07
2019-05-25T20:08:22.513Z,22.22
2019-05-25T20:10:55.340Z,21.27
2019-05-25T20:13:26.258Z,27.13
2019-05-25T20:15:55.074Z,23.62
2019-05-25T20:18:24.956Z,25.10
2019-05-25T20:20:56.164Z,28.50
2019-05-25T20:23:30.472Z,28.35
2019-05-25T20:26:02.565Z,29.18
2019-05-25T20:31:27.868Z,29.95
2019-05-25T20:33:59.743Z,28.00
2019-05-25T20:36:37.990Z,27.70
2019-05-25T20:39:19.888Z,25.88
2019-05-25T20:41:56.737Z,26.30
2019-05-25T20:44:26.668Z,27.80
2019-05-25T20:46:56.432Z,28.42
2019-05-25T20:49:26.334Z,28.52
2019-05-25T20:51:56.139Z,33.10
2019-05-25T20:54:26.702Z,32.88
2019-05-25T20:56:56.361Z,28.12
2019-05-25T20:59:26.051Z,30.23
2019-05-25T21:01:59.456Z,30.10
2019-05-25T21:04:29.379Z,30.62
2019-05-25T21:06:59.903Z,33.80
2019-05-25T21:09:29.851Z,30.02
2019-05-25T21:11:59.944Z,30.37
2019-05-25T21:14:30.008Z,31.85
2019-05-25T21:19:26.893Z,32.42
2019-05-25T21:21:55.834Z,31.52
2019-05-25T21:24:37.104Z,34.65
2019-05-25T21:27:09.026Z,32.85
2019-05-25T21:29:39.133Z,31.62
2019-05-25T21:32:08.027Z,29.07
2019-05-25T21:34:36.812Z,32.05
2019-05-25T21:37:07.053Z,40.70
2019-05-25T21:39:36.432Z,35.45
2019-05-25T21:42:05.029Z,46.95
2019-05-25T21:44:33.609Z,43.28
2019-05-25T21:47:04.640Z,35.23
2019-05-25T21:49:33.950Z,37.75
2019-05-25T21:52:04.001Z,38.67
2019-05-25T21:57:06.141Z,30.72
2019-05-25T21:59:34.820Z,33.60
2019-05-25T22:02:04.243Z,35.83
2019-05-25T22:04:32.975Z,35.03
2019-05-25T22:07:02.850Z,34.73
2019-05-25T22:09:31.924Z,35.92
2019-05-25T22:12:01.555Z,35.25
2019-05-25T22:14:30.050Z,34.85
2019-05-25T22:16:58.518Z,38.67
2019-05-25T22:19:27.171Z,35.98
2019-05-25T22:21:58.061Z,34.48
2019-05-25T22:24:27.526Z,35.10
2019-05-25T22:26:57.038Z,37.07
2019-05-25T22:29:25.781Z,38.20
2019-05-25T22:31:54.840Z,33.23
2019-05-25T22:34:25.780Z,41.87
2019-05-25T22:36:54.058Z,40.80
2019-05-25T22:39:22.952Z,36.13
2019-05-25T22:41:51.613Z,34.95
2019-05-25T22:44:23.418Z,36.00
2019-05-25T22:46:54.044Z,36.80
2019-05-25T22:49:25.526Z,38.15
2019-05-25T22:52:00.764Z,36.75
2019-05-25T22:54:31.322Z,38.40
2019-05-25T22:57:01.868Z,38.73
2019-05-25T22:59:30.686Z,36.35
2019-05-25T23:01:59.249Z,38.35
2019-05-25T23:04:31.459Z,39.08
2019-05-25T23:07:01.198Z,35.28
2019-05-25T23:09:30.221Z,42.40
2019-05-25T23:11:59.246Z,38.43
2019-05-25T23:14:27.743Z,40.25
2019-05-25T23:16:56.305Z,36.80
2019-05-25T23:19:25.116Z,32.55
2019-05-25T23:21:53.545Z,34.80
2019-05-25T23:24:21.996Z,32.00
2019-05-25T23:26:50.795Z,34.85
2019-05-25T23:29:19.380Z,33.73
2019-05-25T23:31:51.528Z,35.35
2019-05-25T23:34:20.825Z,35.25
2019-05-25T23:36:49.781Z,36.50
2019-05-25T23:39:29.751Z,34.25
2019-05-25T23:42:23.015Z,34.03
2019-05-25T23:44:50.912Z,34.63
2019-05-25T23:47:19.591Z,35.17
2019-05-25T23:49:48.232Z,34.20
2019-05-25T23:52:16.721Z,36.63
2019-05-25T23:54:48.893Z,41.63
2019-05-25T23:57:21.310Z,39.27
2019-05-25T23:59:56.330Z,32.88
